This site, now in its 15th season, is a labour of love and fun from one of Ottawa's most avid time trialists and number crunchers. It adheres to and is permitted by the laws of Canada, promotes the objectives of every bicycle club whose results are shown, and is donated free of charge by myself for your enjoyment and usage. If you would like results from series you ride in to be shown here, give me (celia@drmath.ca) a shout!


Index Page
ATT OTT WTT CFCTT VVVTT
Help resultformat:
Case-sensitive

OBC Open TT Series - 2006-May-25 - 15km (Rockliffe Pkwy) (EvtFactor = 0.8811)

Weather (18:00): Mostly Cloudy. Temp.: 25°C, Humidity: 37%, DewPoint: 9.3°C, Wind: S 21km/h gust 30km/h, Pressure: 100.5kPa, Visibility: 24.1km.
Weather (19:00): Cloudy. Temp.: 24°C, Humidity: 41%, DewPoint: 9.8°C, Wind: SSW 18km/h, Pressure: 100.4kPa, Visibility: 24.1km.
Weather (20:00): Cloudy. Temp.: 23°C, Humidity: 43%, DewPoint: 9.4°C, Wind: SSW 13km/h, Pressure: 100.4kPa, Visibility: 24.1km.

Send photos with description (when/where/what) of yourself on or off of bike to celia@drmath.ca

Correction Made 2006-Aug-12 (after the official paperwork became available for checking): Aris Polyzos corrected to 23:28 from 22:28

The weather may have been good tonight, but other circumstances proved problematical for at least 4 riders. Three had flat tires, and one, Peter James, ended his ride painfully at the 4km mark, when a crash, after hitting two large potholes in quick succession, left him with a broken collarbone! The NCC has now been informed (Luc Turpin 239-5588) about a number of the dangerous potholes on the course, and they hope to have the holes plugged by Wednesday evening. We wish Peter a speedy recovery.

For those fortunate enough to finish, this was the best night so far, that is, having the best EvtFactor of any of the 2006 OTT events thus far. Of the 72 finishers, 55 of those had ridden previously in the 2006 OTT series and 47 of those improved (24 by more than 10%), 1 tied and only 7 rode slower than their previous 2006 OTT best. You may look at the performance ratios by clicking here. Other performance measures may be shown by selecting different comparators from the menu in the list below the "Perf.Ratio to" button.

As well, Michael Nash lowered the 2006 OTT best to 19:34, and there were a number of category bests set tonight for the 2006 OTT series - Derrick St. John tied his Senior mark of 19:43, Paul Datars and Rick Sudac, out for the first time this year set VBM and VCM standards, and Chloe Saint-Arnaud-Watt lowered the 2006 OTT Junior Women's mark to 25:17.

 
 

BESTS?
 
1 Nash, Michael  OBC 19:34 45.997 1/78 VAM 1/17 1.0949
2 St. John, Derrick RWR 19:43 45.647 2/78 SEM 1/6 1.0000
3 Rendall, Glen  RWR 19:48 45.455 3/78 VAM 2/17 1.1931
4 Datars, Paul  OBC 20:25 44.082 4/78 VBM 1/18  
5 Gee, Jon OBC 20:54 43.062 5/78 VBM 2/18 1.2728
6 Sudac, Rick  OBC/RWR 20:59 42.891 6/78 VCM 1/10  
7 MacDonald, Warren  RWR 21:15 42.353 7/78 VAM 3/17 1.0357
8 Burge, Craig  OBC 21:16 42.320 8/78 VBM 3/18 1.3870
9 Munden, David --- 21:25 42.023 9/78 VAM 4/17 1.1137
10 Ferguson, James OBC 21:38 41.602 10/78 VBM 4/18 1.1887
11 Beaton, Dale OBC 21:39 41.570 11/78 JUM 1/3 1.1274
12 Roundell, Mark  OBC 21:51 41.190 12/78 VBM 5/18  
13 Partridge, Stephen OBC 22:10 40.602 13/78 VAM 5/17 1.1293
14 Hill, Greg  OBC 22:24 40.179 14/78 VAM 6/17 1.0826
15 Bennett, Michael OBC 22:26 40.119 15/78 VAM 7/17 1.0660
16 Cameron, Allen  OBC 22:38 39.764 16/78 VBM 6/18 1.0380
17 Budgell, Glen  OBC 22:40 39.706 17/78 VCM 2/10 1.0792
18 Martel, Brad --- 22:45 39.560 18/78 VBM 7/18  
19 Christie, Greg  OBC/RWR 22:51 39.387 19/78 VCM 3/10  
20 Durand, Bernard  OBC/EUR 22:52 39.359 20/78 VBM 8/18 1.0110
Lapointe, Marc OBC/RWR 22:52 39.359 20/78 VAM 8/17 1.0716
22 O'Blenes, Paul OBC/CYC 22:54 39.301 22/78 VBM 9/18 1.0579
23 Bilenkey, David OBC 23:00 39.130 23/78 VBM 10/18 1.1457
24 Kirton, Ian OBC 23:02 39.074 24/78 VAM 9/17 1.0241
25 Zappe, Erich OBC 23:11 38.821 25/78 VBM 11/18 1.0820
26 Lamarche, Simon OBC 23:17 38.654 26/78 JUM 2/3  
27 Posthuma, Hans  OBC 23:23 38.489 27/78 VBM 12/18 0.9979
28 Hess, Detlef OBC 23:27 38.380 28/78 VBM 13/18 1.1219
29 Polyzos, Aris --- 23:28 38.352 29/78 VAM 10/17 0.9559
30 Moerman, Bram  OBC 23:31 38.271 30/78 VDM 1/4 0.9396
31 Skafel, Paul --- 23:32 38.244 31/78 VAM 11/17  
32 Burdett, Avery  OBC 23:41 38.001 32/78 VDM 2/4 1.0255
33 Hawkes, Craig OBC/CYC 23:43 37.948 33/78 VAM 12/17  
34 Bryant, Baron OBC 23:47 37.842 34/78 VAM 13/17 1.2110
35 Clarke, Shawn OBC/CYC 23:52 37.709 35/78 SEM 2/6 0.9791
36 Revesz, Erika  OBC 23:57 37.578 36/78 VBF 1/1 1.3241
37 Davis, Stephen OBC 24:07 37.319 37/78 VBM 14/18 1.0571
38 Taylor, Warren OBC 24:08 37.293 38/78 SEM 3/6 1.0983
39 Devisscher, Thomas --- 24:33 36.660 39/78 JUM 3/3  
40 LaRochelle, Mike CYC 24:38 36.536 40/78 VAM 14/17 1.0391
41 Walke, Liam OBC 24:40 36.486 41/78 SEM 4/6 1.0245
42 Danais, Marie OBC 24:44 36.388 42/78 VAF 1/7  
43 Tongoc, Serge --- 24:48 36.290 43/78 VBM 15/18 1.0785
44 Hall, David  OBC 24:58 36.048 44/78 VBM 16/18 1.0202
45 Hall, Margot OBC 25:05 35.880 45/78 VAF 2/7  
46 D'Aoust, Jennifer OBC 25:10 35.762 46/78 VAF 3/7  
47 Provencher, Mélanie OBC 25:16 35.620 47/78 SEF 1/4 1.1822
48 Saint-Arnaud-Watt, Chloe OBC 25:17 35.597 48/78 JUF 1/1 1.0401
49 Prévost, Mireille --- 25:18 35.573 49/78 SEF 2/4 1.1600
50 Janusauskas, Vytas  OBC 25:21 35.503 50/78 VCM 4/10 1.1019
51 Imbrogno, Giorgio  OBC 25:23 35.456 51/78 VCM 5/10 1.1530
52 Bishop, Nicholas OBC 25:24 35.433 52/78 SEM 5/6 1.1989
53 Dorego, Jean-Louis OBC 25:37 35.133 53/78 VCM 6/10 1.1280
54 Mulvihill, Peter OBC 25:39 35.088 54/78 VAM 15/17 1.2526
55 Bellemare, Guy OBC 25:44 34.974 55/78 VCM 7/10 1.1044
56 Damen, Trevor OBC 26:00 34.615 56/78 CAM 1/2 1.1012
57 Ingham, Alison  OBC 26:23 34.112 57/78 VAF 4/7  
58 Campbell, Catherine OBC 26:24 34.091 58/78 SEF 3/4  
59 Bunn, Melissa OBC 26:27 34.026 59/78 SEF 4/4 1.0975
Yaeger, Dave  OBC 26:27 34.026 59/78 VCM 8/10  
61 Hicks, Bob  OBC 26:29 33.984 61/78 VDM 3/4 1.0325
62 Coney, Ingrid  OBC 26:43 33.687 62/78 VCF 1/3 1.1066
63 Draper, Mark OBC 26:56 33.416 63/78 VAM 16/17 1.5446
64 Peres, Belinda OBC 27:24 32.847 64/78 VAF 5/7 1.1939
65 McInnis, Celia  OBC 27:34 32.648 65/78 VCF 2/3 1.0423
66 Scheffler, Heike OBC 27:38 32.569 66/78 VCF 3/3 1.5919
67 Balajewicz, Mike OBC 27:40 32.530 67/78 SEM 6/6 0.9174
68 McLaren, Louise  OBC 28:21 31.746 68/78 VAF 6/7 1.0124
69 Woods, Bob  OBC/ABC 28:31 31.560 69/78 VCM 9/10  
70 Saravanamuttoo, Kim OBC 28:39 31.414 70/78 VAF 7/7  
71 Damen, Ryan OBC 35:09 25.605 71/78 MIM 1/1 0.7359
72 Dutton, Paris OBC 36:37 24.579 72/78 MIF 1/1 0.8909
73 Brooks, James OBC DNS   74/78 VBM 17/18  
Dal-Cin, Matteo  OBC DNF   73/78 CAM 2/2  
Das, Adrian OBC DNS   74/78 VAM 17/17  
James, Peter OBC DNF   76/78 VCM 10/10  
Stoneham, Ron OBC DNF   76/78 VDM 4/4  
Wright, Eric OBC DNF   76/78 VBM 18/18  
 
Average Speed of all of the above 72 finishes (1080km in 29:21:02):36.797
>>>Average of the Average Speeds for these 72 finishes37.257<<<
 

The number of data records shown above is 78
The server processing of your query took: 0 wallclock secs ( 0.18 usr + 0.03 sys = 0.21 CPU)

Thanks to our Helpers: Leona Gray, Gunter Hauschildt, Monique Ménard, Bram Moerman, Geoffrey Wright.

     


Apr 14 (Good Friday)
May 2 (10km) May 4 May 6 (10km) May 9 (10km) May 11 May 16 May 16 (10km) May 18 May 23 May 23 (10km)
  May 25  
May 30 May 30 (10km)
Jun 1 Jun 4 (40km) Jun 6 Jun 6 Jun 8 Jun 13 Jun 13 Jun 15 Jun 20 Jun 20 Jun 22 Jun 23 (10km) Jun 27 Jun 27 Jun 29
Jul 4 Jul 4 Jul 6 Jul 8 (10km) Jul 9 (40km) Jul 11 Jul 11 Jul 13 Jul 18 Jul 18 Jul 20 Jul 25 Jul 25 Jul 27
Aug 1 Aug 1 Aug 3 Aug 5 (10km) Aug 8 Aug 8 Aug 10 Aug 13 (40km/80km) Aug 15 Aug 15 Aug 17 (9th Line) Aug 22 Aug 22 Aug 24 Aug 29 Aug 29 (Invitational) Aug 31
Sep 2 (10km) Sep 5 Sep 7 (Personal-Handicapped) Sep 10 (40km) Sep 12 Sep 14 Sep 17 (40km) (Fournier) Sep 19 Sep 21 Sep 26 Sep 30 (10km)

OTT Rankings
Best       Best by category
WTT Rankings for OBC Members
5 Best 15km     5 Best 15km by category
OBC Member Best Three 15km Rankings
Overall     by category     age-Hcap Female   age-Hcap Male
OBC BAR Ranking
Overall     by category     Rider "Consistency-Graph"
ABC BAR Ranking
Overall     by category     Rider "Consistency-Graph"
Other years
TT Calculator All TT People All TT events
ABC Home VVV Home
CKAP GOLD MEDAL
Other Links

Please send your comments and suggestions to: Celia McInnis
Copyright © 1998-2011 Celia McInnis. All rights reserved. Links are welcomed.